Terminal Aerodrome Forecast
Issued by NWS Newport/Morehead City, NC

Home | Current Version | Previous Version | Text Only | Print | Product List | Glossary Off
Versions: 1 2 3 4 5 6 7 8 9 10 11 12 13 14 15 16 17 18

742
FTUS42 KMHX 221739
TAFEWN
TAF
KEWN 221739Z 2218/2318 24005KT P6SM VCSH BKN050
     FM230000 22005KT P6SM BKN120
     FM231000 23005KT P6SM BKN020
     FM231300 22009KT P6SM BKN040=

USA.gov is the U.S. government's official web portal to all federal, state and local government web resources and services.